Time;durP1;ratioP1;P1;durP2;ratioP2;P2;SDS_P1;SDS_P2;PMS_P1;PMS_P2;Temp;Humidity;BMP_temperature;BMP_pressure;BME280_temperature;BME280_humidity;BME280_pressure;Samples;Min_cycle;Max_cycle;Signal;HPM_P1;HPM_P2
2021/05/26 00:02:00;;;;;;;;;;;16.60;99.90;;;;;;5115762;28;20354;-70
2021/05/26 00:04:27;;;;;;;;;;;16.60;99.90;;;;;;5115476;28;20350;-71
2021/05/26 00:06:54;;;;;;;;;;;16.70;99.90;;;;;;5115499;28;20290;-71
2021/05/26 00:09:20;;;;;;;;;;;16.70;99.90;;;;;;5097678;28;19908;-71
2021/05/26 00:11:47;;;;;;;;;;;16.70;99.90;;;;;;5082365;28;19995;-71
2021/05/26 00:14:13;;;;;;;;;;;16.70;99.90;;;;;;5077650;28;20276;-69
2021/05/26 00:16:40;;;;;;;;;;;16.70;99.90;;;;;;5115632;28;20410;-70
2021/05/26 00:19:08;;;;;;;;;;;16.70;99.90;;;;;;5115104;28;19994;-70
2021/05/26 00:21:35;;;;;;;;;;;16.70;99.90;;;;;;5114273;28;20326;-70
2021/05/26 00:24:02;;;;;;;;;;;16.70;99.90;;;;;;5115442;28;19915;-71
2021/05/26 00:26:29;;;;;;;;;;;16.70;99.90;;;;;;5115317;28;19908;-70
2021/05/26 00:28:55;;;;;;;;;;;16.70;99.90;;;;;;5113885;28;19912;-69
2021/05/26 00:31:24;;;;;;;;;;;16.80;99.90;;;;;;5115289;28;19908;-69
2021/05/26 00:33:51;;;;;;;;;;;16.80;99.90;;;;;;5115156;28;19912;-72
2021/05/26 00:36:18;;;;;;;;;;;16.80;99.90;;;;;;5115212;28;19911;-70
2021/05/26 00:38:45;;;;;;;;;;;16.90;99.90;;;;;;5114900;28;20295;-70
2021/05/26 00:41:12;;;;;;;;;;;16.90;99.90;;;;;;5114861;28;19908;-70
2021/05/26 00:43:39;;;;;;;;;;;16.90;99.90;;;;;;5114790;28;19919;-71
2021/05/26 00:46:06;;;;;;;;;;;16.90;99.90;;;;;;5115023;28;20002;-70
2021/05/26 00:48:33;;;;;;;;;;;17.00;99.90;;;;;;5115055;28;20016;-72
2021/05/26 00:51:00;;;;;;;;;;;17.10;99.80;;;;;;5114382;28;20282;-69
2021/05/26 00:53:28;;;;;;;;;;;17.20;99.20;;;;;;5114771;28;20015;-69
2021/05/26 00:55:55;;;;;;;;;;;17.20;99.40;;;;;;5114625;28;19920;-71
2021/05/26 00:58:23;;;;;;;;;;;17.40;99.20;;;;;;5114764;28;20418;-70
2021/05/26 01:00:50;;;;;;;;;;;17.50;99.30;;;;;;5114460;28;19907;-71
2021/05/26 01:03:17;;;;;;;;;;;17.70;99.60;;;;;;5114588;28;20002;-71
2021/05/26 01:05:46;;;;;;;;;;;18.10;98.40;;;;;;5114428;28;19956;-70
2021/05/26 01:08:13;;;;;;;;;;;18.20;98.60;;;;;;5114450;28;19935;-70
2021/05/26 01:10:40;;;;;;;;;;;18.40;97.90;;;;;;5114299;28;19954;-69
2021/05/26 01:13:08;;;;;;;;;;;18.70;98.30;;;;;;5114264;28;20350;-69
2021/05/26 01:15:34;;;;;;;;;;;18.80;96.80;;;;;;5114348;28;19916;-70
2021/05/26 01:18:30;;;;;;;;;;;18.70;97.00;;;;;;5114385;28;19908;-70
2021/05/26 01:20:58;;;;;;;;;;;18.90;97.10;;;;;;5100582;28;19946;-69
2021/05/26 01:23:25;;;;;;;;;;;18.70;97.20;;;;;;5114283;28;20330;-70
2021/05/26 01:25:53;;;;;;;;;;;18.40;97.20;;;;;;5114143;28;19908;-69
2021/05/26 01:28:20;;;;;;;;;;;18.50;97.30;;;;;;5114152;28;19987;-70
2021/05/26 01:30:48;;;;;;;;;;;18.40;97.10;;;;;;5114146;28;19931;-69
2021/05/26 01:33:15;;;;;;;;;;;18.20;97.60;;;;;;5113996;28;19979;-70
2021/05/26 01:35:42;;;;;;;;;;;18.40;98.50;;;;;;5114036;28;19922;-69
2021/05/26 01:38:15;;;;;;;;;;;18.60;97.50;;;;;;5114126;28;19992;-70
2021/05/26 01:40:42;;;;;;;;;;;18.60;98.40;;;;;;5113922;28;19915;-70
2021/05/26 01:43:09;;;;;;;;;;;18.50;97.70;;;;;;5113666;28;20395;-70
2021/05/26 01:45:36;;;;;;;;;;;18.50;97.00;;;;;;5113968;28;19919;-70
2021/05/26 01:48:03;;;;;;;;;;;18.30;97.20;;;;;;5113795;28;19914;-69
2021/05/26 01:50:29;;;;;;;;;;;18.20;98.80;;;;;;5113654;28;20338;-71
2021/05/26 01:53:01;;;;;;;;;;;18.30;97.60;;;;;;5113615;28;19961;-71
2021/05/26 01:55:28;;;;;;;;;;;18.20;97.70;;;;;;5113765;28;19963;-71
2021/05/26 01:57:54;;;;;;;;;;;18.20;97.30;;;;;;5113635;28;20315;-70
2021/05/26 02:00:21;;;;;;;;;;;18.20;97.10;;;;;;5112318;28;20273;-72
2021/05/26 02:02:48;;;;;;;;;;;18.20;96.50;;;;;;5113326;28;19915;-71
2021/05/26 02:05:15;;;;;;;;;;;18.20;97.10;;;;;;5113380;28;19908;-70
2021/05/26 02:07:42;;;;;;;;;;;18.20;95.90;;;;;;5113648;28;19907;-69
2021/05/26 02:10:10;;;;;;;;;;;18.20;96.00;;;;;;5113604;28;19911;-69
2021/05/26 02:12:37;;;;;;;;;;;18.20;96.30;;;;;;5113201;28;19911;-69
2021/05/26 02:15:05;;;;;;;;;;;18.10;96.40;;;;;;5113237;28;20007;-69
2021/05/26 02:17:32;;;;;;;;;;;18.30;96.00;;;;;;5113687;28;19908;-68
2021/05/26 02:19:59;;;;;;;;;;;18.30;96.00;;;;;;5113510;28;20278;-70
2021/05/26 02:22:26;;;;;;;;;;;18.20;95.60;;;;;;5113518;28;19908;-69
2021/05/26 02:24:53;;;;;;;;;;;18.20;96.10;;;;;;5113215;28;19907;-69
2021/05/26 02:27:19;;;;;;;;;;;18.20;96.20;;;;;;5111984;28;19956;-68
2021/05/26 02:29:46;;;;;;;;;;;18.30;96.20;;;;;;5113575;28;19908;-70
2021/05/26 02:32:13;;;;;;;;;;;18.30;95.60;;;;;;5116308;28;19939;-70
2021/05/26 02:34:39;;;;;;;;;;;18.40;96.30;;;;;;5117496;28;19912;-69
2021/05/26 02:37:06;;;;;;;;;;;18.50;94.40;;;;;;5117359;28;19908;-69
2021/05/26 02:39:33;;;;;;;;;;;18.40;94.60;;;;;;5117633;28;19907;-70
2021/05/26 02:42:00;;;;;;;;;;;18.40;94.40;;;;;;5117666;28;19907;-71
2021/05/26 02:44:27;;;;;;;;;;;18.30;94.60;;;;;;5117480;28;19928;-69
2021/05/26 02:46:53;;;;;;;;;;;18.30;94.10;;;;;;5117373;28;19912;-69
2021/05/26 02:49:20;;;;;;;;;;;18.40;94.40;;;;;;5116963;28;19908;-69
2021/05/26 02:51:47;;;;;;;;;;;18.50;93.90;;;;;;5117350;28;20002;-69
2021/05/26 02:54:13;;;;;;;;;;;18.50;93.30;;;;;;5116958;28;19927;-69
2021/05/26 02:56:40;;;;;;;;;;;18.50;93.90;;;;;;5117328;28;19965;-69
2021/05/26 02:59:07;;;;;;;;;;;18.50;92.80;;;;;;5117044;28;20013;-69
2021/05/26 03:01:35;;;;;;;;;;;18.50;92.60;;;;;;5117557;28;19915;-70
2021/05/26 03:04:02;;;;;;;;;;;18.40;92.30;;;;;;5117465;28;19908;-69
2021/05/26 03:06:29;;;;;;;;;;;18.40;92.30;;;;;;5117477;28;19969;-69
2021/05/26 03:08:56;;;;;;;;;;;18.40;92.50;;;;;;5116861;28;19908;-70
2021/05/26 03:11:22;;;;;;;;;;;18.40;92.40;;;;;;5116963;28;19912;-69
2021/05/26 03:13:49;;;;;;;;;;;18.40;93.00;;;;;;5116568;28;20350;-69
2021/05/26 03:16:16;;;;;;;;;;;18.50;92.40;;;;;;5116802;28;19919;-71
2021/05/26 03:18:45;;;;;;;;;;;18.50;91.90;;;;;;5116709;28;20205;-71
2021/05/26 03:21:12;;;;;;;;;;;18.50;92.40;;;;;;5116742;28;19922;-71
2021/05/26 03:23:40;;;;;;;;;;;18.50;92.40;;;;;;5116590;28;19911;-70
2021/05/26 03:26:07;;;;;;;;;;;18.50;91.80;;;;;;5116441;28;19919;-70
2021/05/26 03:28:34;;;;;;;;;;;18.50;91.60;;;;;;5116485;28;19918;-70
2021/05/26 03:31:01;;;;;;;;;;;18.60;91.00;;;;;;5116226;28;19908;-70
2021/05/26 03:33:27;;;;;;;;;;;18.50;91.40;;;;;;5116281;28;20002;-71
2021/05/26 03:35:54;;;;;;;;;;;18.60;90.60;;;;;;5116133;28;20309;-71
2021/05/26 03:38:21;;;;;;;;;;;18.60;91.10;;;;;;5116233;28;19916;-70
2021/05/26 03:40:47;;;;;;;;;;;18.70;91.90;;;;;;5116162;28;20366;-70
2021/05/26 03:43:14;;;;;;;;;;;18.80;91.20;;;;;;5114828;28;20378;-70
2021/05/26 03:45:41;;;;;;;;;;;18.70;90.80;;;;;;5116383;28;19943;-70
2021/05/26 03:48:08;;;;;;;;;;;18.70;91.00;;;;;;5115979;28;19908;-71
2021/05/26 03:50:34;;;;;;;;;;;18.70;91.10;;;;;;5116107;28;20315;-70
2021/05/26 03:53:01;;;;;;;;;;;18.70;90.30;;;;;;5115938;28;20320;-69
2021/05/26 03:55:29;;;;;;;;;;;18.70;90.90;;;;;;5115943;28;19923;-70
2021/05/26 03:57:55;;;;;;;;;;;18.70;90.60;;;;;;5116004;28;19919;-71
2021/05/26 04:00:22;;;;;;;;;;;18.80;90.30;;;;;;5115954;28;19920;-69
2021/05/26 04:02:50;;;;;;;;;;;18.70;91.80;;;;;;5115387;28;19907;-70
2021/05/26 04:05:16;;;;;;;;;;;18.70;90.50;;;;;;5115716;28;20298;-71
2021/05/26 04:07:43;;;;;;;;;;;18.70;89.70;;;;;;5115737;28;20274;-71
2021/05/26 04:10:10;;;;;;;;;;;18.80;88.40;;;;;;5115698;28;19908;-71
2021/05/26 04:12:37;;;;;;;;;;;18.80;89.20;;;;;;5115494;28;19919;-70
2021/05/26 04:15:04;;;;;;;;;;;18.90;88.70;;;;;;5115174;28;20018;-72
2021/05/26 04:17:31;;;;;;;;;;;19.00;88.70;;;;;;5115376;28;19912;-71
2021/05/26 04:20:06;;;;;;;;;;;19.10;88.60;;;;;;5116007;28;19955;-71
2021/05/26 04:22:34;;;;;;;;;;;19.00;87.20;;;;;;5114918;28;19914;-71
2021/05/26 04:25:00;;;;;;;;;;;19.00;86.50;;;;;;5115944;28;19908;-69
2021/05/26 04:27:27;;;;;;;;;;;19.10;86.40;;;;;;5116131;28;19999;-70
2021/05/26 04:29:54;;;;;;;;;;;19.10;86.70;;;;;;5114903;28;19969;-68
2021/05/26 04:32:20;;;;;;;;;;;19.10;83.70;;;;;;5116034;28;20415;-70
2021/05/26 04:34:47;;;;;;;;;;;19.10;83.90;;;;;;5116174;28;20266;-71
2021/05/26 04:37:16;;;;;;;;;;;19.10;83.00;;;;;;5116789;28;19919;-70
2021/05/26 04:39:43;;;;;;;;;;;19.20;82.80;;;;;;5117083;28;20417;-70
2021/05/26 04:42:10;;;;;;;;;;;19.20;82.90;;;;;;5116146;28;19907;-70
2021/05/26 04:44:37;;;;;;;;;;;19.10;82.90;;;;;;5116172;28;19967;-70
2021/05/26 04:47:04;;;;;;;;;;;19.00;82.20;;;;;;5115632;28;19979;-70
2021/05/26 04:49:30;;;;;;;;;;;19.10;79.30;;;;;;5114761;28;19908;-69
2021/05/26 04:51:57;;;;;;;;;;;19.20;80.60;;;;;;5113422;28;19994;-70
2021/05/26 04:54:24;;;;;;;;;;;19.10;81.70;;;;;;5114409;28;20348;-70
2021/05/26 04:56:50;;;;;;;;;;;19.20;81.70;;;;;;5114438;28;19942;-71
2021/05/26 04:59:17;;;;;;;;;;;19.30;80.70;;;;;;5114741;28;19908;-70
2021/05/26 05:01:44;;;;;;;;;;;19.40;81.20;;;;;;5114759;28;19957;-70
2021/05/26 05:04:11;;;;;;;;;;;19.40;81.60;;;;;;5114477;28;19912;-69
2021/05/26 05:06:37;;;;;;;;;;;19.40;80.30;;;;;;5114934;28;20008;-71
2021/05/26 05:09:06;;;;;;;;;;;19.40;80.20;;;;;;5114551;28;19918;-71
2021/05/26 05:11:33;;;;;;;;;;;19.40;79.00;;;;;;5113347;28;19935;-71
2021/05/26 05:14:00;;;;;;;;;;;19.40;79.50;;;;;;5114332;28;19952;-71
2021/05/26 05:16:27;;;;;;;;;;;19.30;78.80;;;;;;5114515;28;20271;-70
2021/05/26 05:18:54;;;;;;;;;;;19.30;77.70;;;;;;5113946;28;19919;-69
2021/05/26 05:21:21;;;;;;;;;;;19.30;78.30;;;;;;5114104;28;20298;-70
2021/05/26 05:23:48;;;;;;;;;;;19.30;77.20;;;;;;5114133;28;19907;-69
2021/05/26 05:26:14;;;;;;;;;;;19.40;77.30;;;;;;5113935;28;19911;-69
2021/05/26 05:28:41;;;;;;;;;;;19.30;77.10;;;;;;5114218;28;19961;-70
2021/05/26 05:31:07;;;;;;;;;;;19.30;77.00;;;;;;5113829;28;19915;-70
2021/05/26 05:33:34;;;;;;;;;;;19.30;77.10;;;;;;5113827;28;19911;-69
2021/05/26 05:36:01;;;;;;;;;;;19.30;76.70;;;;;;5113756;28;20402;-70
2021/05/26 05:38:28;;;;;;;;;;;19.30;76.20;;;;;;5113951;28;19908;-70
2021/05/26 05:40:54;;;;;;;;;;;19.30;77.60;;;;;;5113623;28;19918;-69
2021/05/26 05:43:21;;;;;;;;;;;19.20;77.40;;;;;;5113521;28;19915;-70
2021/05/26 05:45:48;;;;;;;;;;;19.20;77.60;;;;;;5113871;28;19907;-69
2021/05/26 05:48:14;;;;;;;;;;;19.20;77.20;;;;;;5113707;28;19908;-71
2021/05/26 05:50:41;;;;;;;;;;;19.10;78.50;;;;;;5113480;28;19907;-69
2021/05/26 05:53:08;;;;;;;;;;;19.10;79.10;;;;;;5113706;28;19912;-69
2021/05/26 05:55:34;;;;;;;;;;;19.00;79.30;;;;;;5113664;28;20418;-70
2021/05/26 05:58:03;;;;;;;;;;;18.90;79.40;;;;;;5113818;28;19935;-70
2021/05/26 06:00:32;;;;;;;;;;;18.90;80.40;;;;;;5113841;28;19908;-71
2021/05/26 06:02:59;;;;;;;;;;;18.80;80.50;;;;;;5113431;28;20370;-71
2021/05/26 06:05:25;;;;;;;;;;;18.80;81.00;;;;;;5112969;28;20001;-70
2021/05/26 06:07:52;;;;;;;;;;;18.70;80.10;;;;;;5113632;28;19923;-70
2021/05/26 06:10:19;;;;;;;;;;;18.70;80.90;;;;;;5113466;28;20281;-70
2021/05/26 06:12:48;;;;;;;;;;;18.70;81.80;;;;;;5113441;28;20283;-72
2021/05/26 06:15:15;;;;;;;;;;;18.60;80.40;;;;;;5113249;28;19961;-70
2021/05/26 06:17:41;;;;;;;;;;;18.50;81.10;;;;;;5113418;28;19908;-70
2021/05/26 06:20:08;;;;;;;;;;;18.50;80.60;;;;;;5113320;28;20285;-70
2021/05/26 06:22:35;;;;;;;;;;;18.40;81.20;;;;;;5113639;28;19908;-71
2021/05/26 06:25:01;;;;;;;;;;;18.40;81.60;;;;;;5113122;28;20267;-70
2021/05/26 06:27:28;;;;;;;;;;;18.30;81.60;;;;;;5113344;28;20048;-71
2021/05/26 06:29:55;;;;;;;;;;;18.30;82.00;;;;;;5113331;28;19911;-71
2021/05/26 06:32:21;;;;;;;;;;;18.20;82.30;;;;;;5113244;28;19931;-71
2021/05/26 06:34:50;;;;;;;;;;;18.20;81.90;;;;;;5113198;28;19922;-71
2021/05/26 06:37:17;;;;;;;;;;;18.10;82.40;;;;;;5113420;28;19995;-71
2021/05/26 06:39:43;;;;;;;;;;;18.10;82.90;;;;;;5113260;28;20316;-71
2021/05/26 06:42:10;;;;;;;;;;;18.00;82.10;;;;;;5113442;28;19908;-72
2021/05/26 06:44:37;;;;;;;;;;;18.00;82.50;;;;;;5113169;28;19920;-71
2021/05/26 06:47:03;;;;;;;;;;;18.00;82.00;;;;;;5112830;28;19966;-69
2021/05/26 06:49:31;;;;;;;;;;;18.00;81.90;;;;;;5113308;28;19907;-72
2021/05/26 06:51:58;;;;;;;;;;;17.90;81.80;;;;;;5112966;28;19943;-71
2021/05/26 06:54:24;;;;;;;;;;;17.80;81.80;;;;;;5113010;28;20400;-71
2021/05/26 06:56:51;;;;;;;;;;;17.80;81.70;;;;;;5112927;28;19981;-69
2021/05/26 06:59:18;;;;;;;;;;;17.80;81.80;;;;;;5113104;28;19994;-71
2021/05/26 07:01:44;;;;;;;;;;;17.70;82.40;;;;;;5113100;28;19999;-70
2021/05/26 07:04:12;;;;;;;;;;;17.70;82.10;;;;;;5113001;28;19915;-71
2021/05/26 07:06:38;;;;;;;;;;;17.70;82.30;;;;;;5112956;28;19915;-71
2021/05/26 07:09:05;;;;;;;;;;;17.60;82.40;;;;;;5112832;28;19954;-69
2021/05/26 07:11:32;;;;;;;;;;;17.60;82.70;;;;;;5113161;28;19908;-71
2021/05/26 07:13:58;;;;;;;;;;;17.60;82.70;;;;;;5111537;28;19916;-71
2021/05/26 07:16:25;;;;;;;;;;;17.50;84.00;;;;;;5112923;28;19912;-70
2021/05/26 07:18:52;;;;;;;;;;;17.50;83.50;;;;;;5116111;28;19953;-71
2021/05/26 07:21:18;;;;;;;;;;;17.40;82.90;;;;;;5116838;27;19908;-72
2021/05/26 07:23:45;;;;;;;;;;;17.40;82.80;;;;;;5116535;28;19907;-72
2021/05/26 07:26:12;;;;;;;;;;;17.40;83.30;;;;;;5116469;28;19998;-70
2021/05/26 07:28:42;;;;;;;;;;;17.30;83.60;;;;;;5116997;28;19914;-72
2021/05/26 07:31:08;;;;;;;;;;;17.30;83.00;;;;;;5117255;28;19908;-70
2021/05/26 07:33:37;;;;;;;;;;;17.30;82.70;;;;;;5122722;28;19961;-69
2021/05/26 07:36:03;;;;;;;;;;;17.30;83.60;;;;;;5124868;28;19969;-69
2021/05/26 07:38:30;;;;;;;;;;;17.20;83.70;;;;;;5124022;28;20297;-72
2021/05/26 07:40:58;;;;;;;;;;;17.10;83.50;;;;;;5122723;28;19911;-70
2021/05/26 07:43:25;;;;;;;;;;;17.10;83.20;;;;;;5123240;28;19929;-70
2021/05/26 07:45:52;;;;;;;;;;;17.10;83.30;;;;;;5117475;28;20290;-72
2021/05/26 07:48:19;;;;;;;;;;;17.20;82.60;;;;;;5096633;28;19919;-71
2021/05/26 07:50:46;;;;;;;;;;;17.10;82.90;;;;;;5093244;28;19935;-71
2021/05/26 07:53:13;;;;;;;;;;;17.10;82.10;;;;;;5093366;28;19908;-71
2021/05/26 07:55:39;;;;;;;;;;;17.10;83.90;;;;;;5093473;28;19920;-69
2021/05/26 07:58:06;;;;;;;;;;;17.00;84.50;;;;;;5093720;28;19916;-69
2021/05/26 08:00:33;;;;;;;;;;;17.00;83.00;;;;;;5093406;28;19912;-71
2021/05/26 08:02:59;;;;;;;;;;;17.00;82.00;;;;;;5093305;28;19999;-70
2021/05/26 08:05:26;;;;;;;;;;;17.00;84.30;;;;;;5093037;28;19908;-71
2021/05/26 08:07:53;;;;;;;;;;;17.00;82.80;;;;;;5092944;28;20003;-71
2021/05/26 08:10:19;;;;;;;;;;;17.00;82.90;;;;;;5093361;28;20016;-70
2021/05/26 08:12:46;;;;;;;;;;;17.00;83.60;;;;;;5093244;28;20354;-69
2021/05/26 08:15:13;;;;;;;;;;;16.90;84.10;;;;;;5092929;28;19927;-70
2021/05/26 08:17:40;;;;;;;;;;;16.80;86.90;;;;;;5092833;28;19915;-70
2021/05/26 08:20:08;;;;;;;;;;;16.80;85.70;;;;;;5092185;28;19940;-71
2021/05/26 08:22:34;;;;;;;;;;;16.80;84.70;;;;;;5092948;28;19912;-73
2021/05/26 08:25:01;;;;;;;;;;;16.80;85.70;;;;;;5092821;28;19916;-74
2021/05/26 08:27:28;;;;;;;;;;;16.70;85.00;;;;;;5092956;28;19912;-73
2021/05/26 08:29:55;;;;;;;;;;;16.70;84.10;;;;;;5092033;28;19930;-72
2021/05/26 08:32:22;;;;;;;;;;;16.70;83.10;;;;;;5092566;28;20344;-72
2021/05/26 08:34:49;;;;;;;;;;;16.70;83.00;;;;;;5091948;28;20010;-73
2021/05/26 08:37:16;;;;;;;;;;;16.70;84.30;;;;;;5092669;28;19977;-69
2021/05/26 08:39:43;;;;;;;;;;;16.60;82.70;;;;;;5092765;28;20270;-70
2021/05/26 08:42:10;;;;;;;;;;;16.70;83.00;;;;;;5092652;28;19958;-72
2021/05/26 08:44:37;;;;;;;;;;;16.60;82.60;;;;;;5092305;28;19924;-70
2021/05/26 08:47:04;;;;;;;;;;;16.60;83.30;;;;;;5091851;28;20331;-70
2021/05/26 08:49:31;;;;;;;;;;;16.50;84.00;;;;;;5091950;28;19956;-70
2021/05/26 08:52:02;;;;;;;;;;;16.40;83.10;;;;;;5092504;28;20579;-70
2021/05/26 08:54:28;;;;;;;;;;;16.40;83.40;;;;;;5092287;28;19924;-71
2021/05/26 08:56:55;;;;;;;;;;;16.30;83.50;;;;;;5091946;28;19961;-71
2021/05/26 08:59:23;;;;;;;;;;;16.30;82.60;;;;;;5091833;28;20012;-69
2021/05/26 09:01:50;;;;;;;;;;;16.20;82.10;;;;;;5092135;28;19916;-69
2021/05/26 09:04:29;;;;;;;;;;;16.20;82.10;;;;;;5091707;28;19908;-72
2021/05/26 09:07:30;;;;;;;;;;;16.20;82.10;;;;;;5093778;28;19908;-71
2021/05/26 09:10:08;;;;;;;;;;;16.20;82.50;;;;;;5089825;28;20116;-70
2021/05/26 09:12:41;;;;;;;;;;;16.20;83.00;;;;;;5093910;28;19908;-70
2021/05/26 09:15:18;;;;;;;;;;;16.20;83.00;;;;;;5093792;28;19923;-72
2021/05/26 09:17:49;;;;;;;;;;;16.10;83.40;;;;;;5093019;28;19908;-70
2021/05/26 09:20:23;;;;;;;;;;;16.10;84.30;;;;;;5093722;28;20324;-68
2021/05/26 09:23:01;;;;;;;;;;;16.10;82.50;;;;;;5093435;28;19955;-69
2021/05/26 09:25:29;;;;;;;;;;;16.00;83.30;;;;;;5093727;28;19931;-69
2021/05/26 09:28:13;;;;;;;;;;;16.00;83.00;;;;;;5093183;28;19915;-68
2021/05/26 09:30:40;;;;;;;;;;;16.00;83.30;;;;;;5093759;28;19979;-69
2021/05/26 09:33:26;;;;;;;;;;;15.90;84.50;;;;;;5092667;28;19908;-70
2021/05/26 09:36:12;;;;;;;;;;;15.90;83.60;;;;;;5093492;28;19916;-69
2021/05/26 09:38:44;;;;;;;;;;;15.90;83.90;;;;;;5089341;28;19977;-69
2021/05/26 09:41:11;;;;;;;;;;;15.90;84.30;;;;;;5091358;28;19908;-70
2021/05/26 09:43:39;;;;;;;;;;;15.90;84.70;;;;;;5093260;28;19920;-70
2021/05/26 09:46:19;;;;;;;;;;;15.90;84.70;;;;;;5093073;28;19908;-70
2021/05/26 09:49:01;;;;;;;;;;;15.90;84.00;;;;;;5096131;28;19908;-71
2021/05/26 09:51:28;;;;;;;;;;;15.90;84.20;;;;;;5105817;28;19979;-69
2021/05/26 09:54:15;;;;;;;;;;;15.80;84.50;;;;;;5106978;28;19912;-70
2021/05/26 09:56:42;;;;;;;;;;;15.80;86.00;;;;;;5107128;28;19916;-70
2021/05/26 09:59:09;;;;;;;;;;;15.80;84.70;;;;;;5107047;28;19908;-69
2021/05/26 10:01:36;;;;;;;;;;;15.70;82.60;;;;;;5106429;28;19908;-69
2021/05/26 10:04:03;;;;;;;;;;;15.70;82.00;;;;;;5106751;28;19929;-70
2021/05/26 10:06:30;;;;;;;;;;;15.70;81.80;;;;;;5097833;28;20043;-70
2021/05/26 10:08:57;;;;;;;;;;;15.70;82.50;;;;;;5095154;28;20323;-70
2021/05/26 10:11:26;;;;;;;;;;;15.70;81.90;;;;;;5094584;28;19919;-69
2021/05/26 10:13:54;;;;;;;;;;;15.70;83.40;;;;;;5094344;28;19908;-68
2021/05/26 10:16:21;;;;;;;;;;;15.60;82.70;;;;;;5093674;28;19923;-69
2021/05/26 10:18:49;;;;;;;;;;;15.60;85.10;;;;;;5093157;28;19908;-68
2021/05/26 10:21:16;;;;;;;;;;;15.60;82.80;;;;;;5093006;28;19908;-69
2021/05/26 10:23:43;;;;;;;;;;;15.60;83.20;;;;;;5093196;28;19908;-71
2021/05/26 10:26:10;;;;;;;;;;;15.50;84.50;;;;;;5093173;28;19908;-70
2021/05/26 10:28:37;;;;;;;;;;;15.50;82.40;;;;;;5093135;28;19908;-69
2021/05/26 10:31:07;;;;;;;;;;;15.50;82.60;;;;;;5092726;28;19916;-68
2021/05/26 10:33:42;;;;;;;;;;;15.50;83.20;;;;;;5093054;28;19908;-69
2021/05/26 10:36:10;;;;;;;;;;;15.50;83.00;;;;;;5093414;28;19959;-69
2021/05/26 10:38:55;;;;;;;;;;;15.40;83.40;;;;;;5095026;28;19908;-71
2021/05/26 10:41:22;;;;;;;;;;;15.40;83.80;;;;;;5096504;28;19908;-71
2021/05/26 10:43:58;;;;;;;;;;;15.40;83.50;;;;;;5095910;28;19927;-70
2021/05/26 10:46:35;;;;;;;;;;;15.40;84.80;;;;;;5095102;28;19908;-70
2021/05/26 10:49:03;;;;;;;;;;;15.30;83.50;;;;;;5093133;28;19930;-69
2021/05/26 10:51:48;;;;;;;;;;;15.40;84.80;;;;;;5092650;28;19915;-70
2021/05/26 10:54:33;;;;;;;;;;;15.30;84.50;;;;;;5096335;28;19936;-69
2021/05/26 10:56:59;;;;;;;;;;;15.30;84.40;;;;;;5096278;28;19996;-69
2021/05/26 10:59:26;;;;;;;;;;;15.30;86.00;;;;;;5096602;28;19908;-70
2021/05/26 11:01:59;;;;;;;;;;;15.20;85.20;;;;;;5096313;28;19908;-69
2021/05/26 11:04:25;;;;;;;;;;;15.20;86.00;;;;;;5096502;28;19915;-69
2021/05/26 11:07:11;;;;;;;;;;;15.20;86.00;;;;;;5096239;28;19908;-69
2021/05/26 11:09:56;;;;;;;;;;;15.20;85.40;;;;;;5096399;28;19908;-69
2021/05/26 11:12:23;;;;;;;;;;;15.10;86.00;;;;;;5096352;28;19912;-68
2021/05/26 11:14:54;;;;;;;;;;;15.10;88.30;;;;;;5096010;28;20014;-70
2021/05/26 11:17:31;;;;;;;;;;;15.10;86.90;;;;;;5096180;28;19908;-69
2021/05/26 11:20:11;;;;;;;;;;;15.10;86.10;;;;;;5096298;28;19909;-70
2021/05/26 11:22:38;;;;;;;;;;;15.10;87.00;;;;;;5096043;28;20358;-69
2021/05/26 11:25:07;;;;;;;;;;;15.00;86.90;;;;;;5095977;28;19916;-68
2021/05/26 11:27:33;;;;;;;;;;;15.00;87.30;;;;;;5095967;28;19912;-69
2021/05/26 11:30:03;;;;;;;;;;;15.00;87.50;;;;;;5096078;28;19915;-69
2021/05/26 11:32:30;;;;;;;;;;;14.90;89.00;;;;;;5095971;28;19909;-69
2021/05/26 11:34:57;;;;;;;;;;;14.90;88.40;;;;;;5095722;28;20010;-70
2021/05/26 11:37:28;;;;;;;;;;;14.90;87.40;;;;;;5095787;28;19916;-69
2021/05/26 11:39:55;;;;;;;;;;;14.90;87.40;;;;;;5083498;28;19919;-70
2021/05/26 11:42:23;;;;;;;;;;;14.90;87.90;;;;;;5072159;28;20427;-70
2021/05/26 11:44:54;;;;;;;;;;;14.90;88.00;;;;;;5073003;28;20027;-70
2021/05/26 11:47:33;;;;;;;;;;;14.90;87.90;;;;;;5073153;28;19916;-70
2021/05/26 11:50:00;;;;;;;;;;;14.80;88.80;;;;;;5075056;28;19908;-69
2021/05/26 11:52:27;;;;;;;;;;;14.80;89.20;;;;;;5074775;28;19962;-68
2021/05/26 11:54:55;;;;;;;;;;;14.80;89.10;;;;;;5075266;28;20287;-69
2021/05/26 11:57:31;;;;;;;;;;;14.80;89.70;;;;;;5075660;28;19909;-68
2021/05/26 11:59:58;;;;;;;;;;;14.70;88.90;;;;;;5108500;28;19916;-70
2021/05/26 12:02:24;;;;;;;;;;;14.70;89.20;;;;;;5076457;28;19913;-69
2021/05/26 12:04:51;;;;;;;;;;;14.70;90.10;;;;;;5075474;28;19914;-68
2021/05/26 12:07:27;;;;;;;;;;;14.70;89.90;;;;;;5078307;28;19931;-69
2021/05/26 12:09:55;;;;;;;;;;;14.60;89.90;;;;;;5082573;28;19916;-70
2021/05/26 12:12:21;;;;;;;;;;;14.60;90.00;;;;;;5082829;28;20316;-70
2021/05/26 12:14:49;;;;;;;;;;;14.60;89.90;;;;;;5084796;28;19916;-69
2021/05/26 12:17:17;;;;;;;;;;;14.60;90.30;;;;;;5083482;28;20278;-70
2021/05/26 12:19:47;;;;;;;;;;;14.50;90.10;;;;;;5072380;28;19909;-68
2021/05/26 12:22:17;;;;;;;;;;;14.50;90.80;;;;;;5072819;28;19912;-69
2021/05/26 12:24:51;;;;;;;;;;;14.50;90.70;;;;;;5072537;28;20368;-69
2021/05/26 12:27:41;;;;;;;;;;;14.50;90.40;;;;;;5071983;28;19981;-71
2021/05/26 12:30:14;;;;;;;;;;;14.50;91.00;;;;;;5072615;28;19993;-71
2021/05/26 12:32:42;;;;;;;;;;;14.40;91.00;;;;;;5072210;28;20402;-69
2021/05/26 12:35:27;;;;;;;;;;;14.40;90.80;;;;;;5072495;28;19973;-70
2021/05/26 12:37:55;;;;;;;;;;;14.40;90.80;;;;;;5072423;28;19920;-68
2021/05/26 12:40:28;;;;;;;;;;;14.40;91.10;;;;;;5072367;28;19920;-68
2021/05/26 12:42:55;;;;;;;;;;;14.40;91.50;;;;;;5071477;28;19940;-68
2021/05/26 12:45:24;;;;;;;;;;;14.40;91.70;;;;;;5072082;28;20065;-69
2021/05/26 12:47:50;;;;;;;;;;;14.40;91.70;;;;;;5072080;28;20011;-69
2021/05/26 12:50:19;;;;;;;;;;;14.40;91.00;;;;;;5072127;28;19909;-70
2021/05/26 12:52:50;;;;;;;;;;;14.30;91.10;;;;;;5071808;28;20321;-71
2021/05/26 12:55:17;;;;;;;;;;;14.30;91.30;;;;;;5071999;28;19912;-70
2021/05/26 12:57:43;;;;;;;;;;;14.30;91.40;;;;;;5071580;28;19909;-70
2021/05/26 13:00:11;;;;;;;;;;;14.30;92.20;;;;;;5071544;28;19991;-71
2021/05/26 13:02:42;;;;;;;;;;;14.30;91.40;;;;;;5071830;28;19914;-69
2021/05/26 13:05:13;;;;;;;;;;;14.30;92.20;;;;;;5072309;28;19908;-69
2021/05/26 13:07:44;;;;;;;;;;;14.30;92.30;;;;;;5071936;28;19912;-71
2021/05/26 13:10:14;;;;;;;;;;;14.30;91.90;;;;;;5071755;28;19923;-71
2021/05/26 13:12:42;;;;;;;;;;;14.30;91.80;;;;;;5070882;28;19932;-71
2021/05/26 13:15:21;;;;;;;;;;;14.30;91.90;;;;;;5071051;28;20449;-71
2021/05/26 13:17:47;;;;;;;;;;;14.20;92.30;;;;;;5071569;28;19908;-69
2021/05/26 13:20:24;;;;;;;;;;;14.20;91.90;;;;;;5071544;28;19920;-70
2021/05/26 13:22:51;;;;;;;;;;;14.20;91.90;;;;;;5071391;28;20434;-71
2021/05/26 13:25:18;;;;;;;;;;;14.10;92.60;;;;;;5103497;28;19909;-71
2021/05/26 13:27:45;;;;;;;;;;;14.10;92.50;;;;;;5070785;28;19919;-71
2021/05/26 13:30:12;;;;;;;;;;;14.20;92.50;;;;;;5080990;28;19915;-69
2021/05/26 13:32:38;;;;;;;;;;;14.20;93.10;;;;;;5071400;28;19909;-70
2021/05/26 13:35:05;;;;;;;;;;;14.20;92.70;;;;;;5071088;28;19912;-71
2021/05/26 13:37:32;;;;;;;;;;;14.10;92.30;;;;;;5071428;28;19909;-70
2021/05/26 13:39:59;;;;;;;;;;;14.10;92.80;;;;;;5070797;28;19939;-70
2021/05/26 13:42:26;;;;;;;;;;;14.10;92.70;;;;;;5071242;28;20011;-69
2021/05/26 13:44:53;;;;;;;;;;;14.00;92.90;;;;;;5070843;28;19943;-69
2021/05/26 13:47:19;;;;;;;;;;;14.00;92.80;;;;;;5071125;28;19912;-68
2021/05/26 13:49:46;;;;;;;;;;;14.00;93.10;;;;;;5071171;28;20011;-69
2021/05/26 13:52:13;;;;;;;;;;;14.00;93.10;;;;;;5070842;28;20370;-71
2021/05/26 13:54:39;;;;;;;;;;;13.90;92.80;;;;;;5071143;28;20011;-70
2021/05/26 13:57:06;;;;;;;;;;;13.90;93.10;;;;;;5070941;28;19951;-71
2021/05/26 13:59:33;;;;;;;;;;;13.90;93.30;;;;;;5071016;28;19938;-70
2021/05/26 14:01:59;;;;;;;;;;;13.90;93.40;;;;;;5071072;28;19908;-69
2021/05/26 14:04:26;;;;;;;;;;;13.80;93.20;;;;;;5070625;28;20307;-69
2021/05/26 14:06:53;;;;;;;;;;;13.80;93.20;;;;;;5070828;28;19913;-68
2021/05/26 14:09:19;;;;;;;;;;;13.80;93.60;;;;;;5070939;28;19912;-69
2021/05/26 14:11:46;;;;;;;;;;;13.80;93.60;;;;;;5071046;28;19978;-69
2021/05/26 14:14:13;;;;;;;;;;;13.80;93.90;;;;;;5070926;28;19909;-69
2021/05/26 14:16:39;;;;;;;;;;;13.80;93.30;;;;;;5070807;28;19919;-70
2021/05/26 14:19:06;;;;;;;;;;;13.80;93.60;;;;;;5070371;28;19966;-69
2021/05/26 14:21:33;;;;;;;;;;;13.70;93.90;;;;;;5070962;28;20057;-69
2021/05/26 14:23:59;;;;;;;;;;;13.70;93.60;;;;;;5103152;28;19953;-70